Time;durP1;ratioP1;P1;durP2;ratioP2;P2;SDS_P1;SDS_P2;PMS_P1;PMS_P2;Temp;Humidity;BMP_temperature;BMP_pressure;BME280_temperature;BME280_humidity;BME280_pressure;Samples;Min_cycle;Max_cycle;Signal;HPM_P1;HPM_P2
2022/03/26 00:00:34;;;;;;;;;;;23.20;44.60;;;;;;4976964;28;1975;-39
2022/03/26 00:03:01;;;;;;;;;;;23.10;44.50;;;;;;4977163;28;1373;-39
2022/03/26 00:05:28;;;;;;;;;;;23.10;44.60;;;;;;4976919;28;958;-40
2022/03/26 00:07:56;;;;;;;;;;;23.10;44.60;;;;;;4976701;28;982;-40
2022/03/26 00:10:23;;;;;;;;;;;23.10;44.60;;;;;;4977206;28;1006;-40
2022/03/26 00:12:52;;;;;;;;;;;23.00;44.70;;;;;;4976586;28;1030;-40
2022/03/26 00:15:19;;;;;;;;;;;23.00;44.60;;;;;;4976572;28;1006;-39
2022/03/26 00:17:46;;;;;;;;;;;23.10;44.90;;;;;;4976607;28;975;-40
2022/03/26 00:20:13;;;;;;;;;;;23.10;44.90;;;;;;4976481;28;1911;-40
2022/03/26 00:22:40;;;;;;;;;;;23.10;44.80;;;;;;4976684;28;995;-40
2022/03/26 00:25:10;;;;;;;;;;;23.20;44.40;;;;;;4976602;28;1010;-40
2022/03/26 00:27:36;;;;;;;;;;;23.10;44.70;;;;;;4977338;28;1026;-39
2022/03/26 00:30:04;;;;;;;;;;;23.10;44.90;;;;;;4976649;28;1108;-40
2022/03/26 00:32:30;;;;;;;;;;;23.10;45.20;;;;;;4977115;28;974;-40
2022/03/26 00:34:58;;;;;;;;;;;23.10;45.10;;;;;;4977374;28;932;-40
2022/03/26 00:37:25;;;;;;;;;;;23.10;45.20;;;;;;4976935;28;1014;-40
2022/03/26 00:39:52;;;;;;;;;;;23.10;45.30;;;;;;4976262;28;1914;-40
2022/03/26 00:42:20;;;;;;;;;;;23.10;45.00;;;;;;4976176;28;936;-40
2022/03/26 00:44:47;;;;;;;;;;;23.00;45.10;;;;;;4977082;28;1002;-40
2022/03/26 00:47:14;;;;;;;;;;;23.10;45.10;;;;;;4976630;28;1014;-40
2022/03/26 00:49:40;;;;;;;;;;;23.00;45.20;;;;;;4976337;28;1010;-40
2022/03/26 00:52:07;;;;;;;;;;;23.00;45.10;;;;;;4976508;28;981;-40
2022/03/26 00:54:34;;;;;;;;;;;23.00;45.50;;;;;;4978500;28;979;-39
2022/03/26 00:57:00;;;;;;;;;;;23.10;45.40;;;;;;4981641;28;1005;-40
2022/03/26 00:59:29;;;;;;;;;;;23.10;45.30;;;;;;4982172;28;1894;-40
2022/03/26 01:01:58;;;;;;;;;;;23.00;45.10;;;;;;4981941;28;955;-40
2022/03/26 01:04:24;;;;;;;;;;;23.10;45.30;;;;;;4981644;28;1032;-40
2022/03/26 01:06:51;;;;;;;;;;;23.10;45.20;;;;;;4981294;28;951;-40
2022/03/26 01:09:18;;;;;;;;;;;23.00;45.20;;;;;;4981188;28;990;-40
2022/03/26 01:11:44;;;;;;;;;;;23.10;45.20;;;;;;4983344;28;1000;-40
2022/03/26 01:14:11;;;;;;;;;;;23.10;45.30;;;;;;4983582;28;955;-39
2022/03/26 01:16:39;;;;;;;;;;;23.10;45.60;;;;;;4983006;28;1096;-40
2022/03/26 01:19:06;;;;;;;;;;;23.10;45.40;;;;;;4981647;28;1910;-40
2022/03/26 01:21:33;;;;;;;;;;;23.00;45.20;;;;;;4980412;28;928;-40
2022/03/26 01:24:00;;;;;;;;;;;23.00;45.40;;;;;;4982146;28;1001;-40
2022/03/26 01:26:27;;;;;;;;;;;23.00;45.50;;;;;;4980606;28;1058;-40
2022/03/26 01:28:54;;;;;;;;;;;23.00;45.60;;;;;;4980354;28;1897;-40
2022/03/26 01:31:22;;;;;;;;;;;23.00;45.60;;;;;;4980126;28;951;-40
2022/03/26 01:33:51;;;;;;;;;;;23.10;45.70;;;;;;4980249;28;1019;-40
2022/03/26 01:36:18;;;;;;;;;;;23.00;45.50;;;;;;4979370;28;1043;-40
2022/03/26 01:38:45;;;;;;;;;;;23.00;45.50;;;;;;4978990;28;1008;-40
2022/03/26 01:41:12;;;;;;;;;;;23.00;45.50;;;;;;4979410;28;1962;-40
2022/03/26 01:43:40;;;;;;;;;;;23.10;45.60;;;;;;4981078;28;978;-40
2022/03/26 01:46:07;;;;;;;;;;;23.00;45.80;;;;;;4980314;28;899;-40
2022/03/26 01:48:38;;;;;;;;;;;23.00;45.70;;;;;;4979875;28;952;-40
2022/03/26 01:51:15;;;;;;;;;;;23.00;45.70;;;;;;4981160;28;1025;-40
2022/03/26 01:53:43;;;;;;;;;;;23.00;45.70;;;;;;4979486;28;1061;-40
2022/03/26 01:56:10;;;;;;;;;;;23.00;45.60;;;;;;4979471;28;973;-40
2022/03/26 01:58:37;;;;;;;;;;;23.00;45.70;;;;;;4979992;28;1029;-40
2022/03/26 02:01:03;;;;;;;;;;;23.10;45.80;;;;;;4980133;28;1902;-40
2022/03/26 02:03:30;;;;;;;;;;;23.00;45.70;;;;;;4979752;28;1003;-40
2022/03/26 02:05:57;;;;;;;;;;;23.00;46.00;;;;;;4978096;28;966;-40
2022/03/26 02:08:25;;;;;;;;;;;23.00;45.90;;;;;;4979177;28;932;-40
2022/03/26 02:10:52;;;;;;;;;;;23.00;45.90;;;;;;4980981;28;959;-40
2022/03/26 02:13:18;;;;;;;;;;;23.00;45.80;;;;;;4980141;28;975;-40
2022/03/26 02:15:45;;;;;;;;;;;23.00;46.10;;;;;;4979365;28;955;-40
2022/03/26 02:18:12;;;;;;;;;;;23.00;45.90;;;;;;4979480;28;1092;-40
2022/03/26 02:20:40;;;;;;;;;;;23.00;46.00;;;;;;4979253;28;1902;-40
2022/03/26 02:23:07;;;;;;;;;;;23.00;45.90;;;;;;4978880;28;1047;-40
2022/03/26 02:25:34;;;;;;;;;;;23.00;45.90;;;;;;4979304;28;986;-40
2022/03/26 02:28:01;;;;;;;;;;;23.00;45.90;;;;;;4979380;28;1855;-39
2022/03/26 02:30:30;;;;;;;;;;;22.90;46.10;;;;;;4978548;28;1017;-40
2022/03/26 02:32:57;;;;;;;;;;;23.00;46.30;;;;;;4979619;28;1098;-40
2022/03/26 02:35:24;;;;;;;;;;;23.00;45.90;;;;;;4979762;28;1026;-40
2022/03/26 02:37:52;;;;;;;;;;;23.00;46.10;;;;;;4979220;28;940;-40
2022/03/26 02:40:20;;;;;;;;;;;23.00;46.00;;;;;;4978598;28;1997;-40
2022/03/26 02:42:47;;;;;;;;;;;23.00;45.90;;;;;;4978514;28;1051;-40
2022/03/26 02:45:13;;;;;;;;;;;23.00;45.90;;;;;;4979104;28;947;-40
2022/03/26 02:47:40;;;;;;;;;;;23.00;45.90;;;;;;4979315;28;1009;-40
2022/03/26 02:50:09;;;;;;;;;;;23.00;46.10;;;;;;4978622;28;1009;-40
2022/03/26 02:52:36;;;;;;;;;;;23.00;46.00;;;;;;4978752;28;990;-40
2022/03/26 02:55:04;;;;;;;;;;;23.00;45.80;;;;;;4978461;28;884;-50
2022/03/26 02:57:31;;;;;;;;;;;23.00;46.10;;;;;;4978803;28;1132;-40
2022/03/26 02:59:58;;;;;;;;;;;23.00;46.10;;;;;;4979830;28;1978;-40
2022/03/26 03:02:25;;;;;;;;;;;23.00;46.00;;;;;;4978521;28;1010;-40
2022/03/26 03:04:51;;;;;;;;;;;23.00;46.10;;;;;;4978583;28;887;-40
2022/03/26 03:07:18;;;;;;;;;;;22.90;46.00;;;;;;4979109;28;1001;-40
2022/03/26 03:09:45;;;;;;;;;;;23.00;46.10;;;;;;4978295;28;985;-40
2022/03/26 03:12:13;;;;;;;;;;;23.00;46.10;;;;;;4979019;28;1007;-40
2022/03/26 03:14:40;;;;;;;;;;;22.90;46.10;;;;;;4979957;28;997;-40
2022/03/26 03:17:06;;;;;;;;;;;23.00;46.20;;;;;;4977712;28;903;-40
2022/03/26 03:19:33;;;;;;;;;;;23.00;46.10;;;;;;4978317;28;940;-40
2022/03/26 03:22:00;;;;;;;;;;;23.00;46.20;;;;;;4978287;28;1922;-39
2022/03/26 03:24:26;;;;;;;;;;;23.00;46.10;;;;;;4977948;28;952;-40
2022/03/26 03:26:53;;;;;;;;;;;23.00;46.10;;;;;;4978374;28;943;-40
2022/03/26 03:29:21;;;;;;;;;;;23.00;46.10;;;;;;4978498;28;943;-40
2022/03/26 03:31:48;;;;;;;;;;;23.00;46.10;;;;;;4977829;28;939;-40
2022/03/26 03:34:15;;;;;;;;;;;23.00;46.30;;;;;;4978521;28;985;-40
2022/03/26 03:36:42;;;;;;;;;;;22.90;46.20;;;;;;4978678;28;1021;-40
2022/03/26 03:39:09;;;;;;;;;;;22.90;46.20;;;;;;4977923;28;1007;-40
2022/03/26 03:41:35;;;;;;;;;;;23.00;46.30;;;;;;4977614;28;1896;-39
2022/03/26 03:44:03;;;;;;;;;;;22.90;46.20;;;;;;4978074;28;1021;-40
2022/03/26 03:46:33;;;;;;;;;;;23.00;46.40;;;;;;4978423;28;931;-40
2022/03/26 03:49:00;;;;;;;;;;;23.00;46.10;;;;;;4977801;28;1011;-40
2022/03/26 03:51:27;;;;;;;;;;;22.90;46.20;;;;;;4977862;28;1014;-40
2022/03/26 03:53:53;;;;;;;;;;;22.90;46.20;;;;;;4977754;28;1006;-40
2022/03/26 03:56:20;;;;;;;;;;;22.90;46.20;;;;;;4977231;28;1037;-40
2022/03/26 03:58:46;;;;;;;;;;;22.90;46.30;;;;;;4980147;28;1107;-40
2022/03/26 04:01:13;;;;;;;;;;;22.90;46.10;;;;;;4976378;28;1975;-40
2022/03/26 04:03:41;;;;;;;;;;;22.90;46.20;;;;;;4976556;28;990;-40
2022/03/26 04:06:08;;;;;;;;;;;22.90;46.10;;;;;;4976885;28;1026;-39
2022/03/26 04:08:35;;;;;;;;;;;22.90;46.20;;;;;;4977088;28;1009;-40
2022/03/26 04:11:02;;;;;;;;;;;23.00;46.20;;;;;;4977273;28;936;-40
2022/03/26 04:13:29;;;;;;;;;;;22.90;46.20;;;;;;4977162;28;990;-40
2022/03/26 04:15:56;;;;;;;;;;;22.90;46.20;;;;;;4977068;28;982;-40
2022/03/26 04:18:23;;;;;;;;;;;22.90;46.30;;;;;;4977767;28;1071;-40
2022/03/26 04:20:52;;;;;;;;;;;22.90;47.20;;;;;;4976503;28;1899;-40
2022/03/26 04:23:19;;;;;;;;;;;22.90;46.30;;;;;;4976919;28;1029;-39
2022/03/26 04:25:46;;;;;;;;;;;22.90;46.20;;;;;;4976712;28;990;-40
2022/03/26 04:28:12;;;;;;;;;;;22.90;46.20;;;;;;4976589;28;1006;-40
2022/03/26 04:30:39;;;;;;;;;;;22.90;46.20;;;;;;4975737;28;950;-40
2022/03/26 04:33:06;;;;;;;;;;;22.90;46.30;;;;;;4976690;28;1120;-40
2022/03/26 04:35:33;;;;;;;;;;;22.90;46.10;;;;;;4975799;28;1043;-40
2022/03/26 04:38:01;;;;;;;;;;;22.90;46.20;;;;;;4977675;28;952;-40
2022/03/26 04:40:28;;;;;;;;;;;22.90;46.20;;;;;;4976754;28;1962;-40
2022/03/26 04:42:55;;;;;;;;;;;22.90;46.40;;;;;;4976280;28;1014;-40
2022/03/26 04:45:23;;;;;;;;;;;22.90;46.20;;;;;;4976592;28;1003;-40
2022/03/26 04:47:49;;;;;;;;;;;22.90;46.30;;;;;;4977270;28;1053;-40
2022/03/26 04:50:16;;;;;;;;;;;22.90;46.20;;;;;;4976588;28;1002;-40
2022/03/26 04:52:43;;;;;;;;;;;22.90;46.20;;;;;;4977736;28;991;-40
2022/03/26 04:55:12;;;;;;;;;;;22.90;46.20;;;;;;4976282;28;978;-40
2022/03/26 04:57:39;;;;;;;;;;;22.90;46.30;;;;;;4976045;28;888;-40
2022/03/26 05:00:08;;;;;;;;;;;22.90;46.40;;;;;;4976965;28;1086;-40
2022/03/26 05:02:35;;;;;;;;;;;22.90;46.30;;;;;;4975888;28;1906;-40
2022/03/26 05:05:02;;;;;;;;;;;22.90;46.30;;;;;;4976299;28;1025;-39
2022/03/26 05:07:47;;;;;;;;;;;22.90;46.40;;;;;;4977029;28;985;-40
2022/03/26 05:10:16;;;;;;;;;;;22.90;46.30;;;;;;4976830;28;848;-39
2022/03/26 05:12:43;;;;;;;;;;;22.90;46.20;;;;;;4976840;28;991;-40
2022/03/26 05:15:10;;;;;;;;;;;22.90;46.30;;;;;;4977140;28;1033;-40
2022/03/26 05:17:37;;;;;;;;;;;22.90;46.20;;;;;;4976945;28;1021;-40
2022/03/26 05:20:04;;;;;;;;;;;22.90;46.40;;;;;;4976472;28;974;-40
2022/03/26 05:22:31;;;;;;;;;;;22.80;46.30;;;;;;4976568;28;1899;-40
2022/03/26 05:24:57;;;;;;;;;;;22.90;46.20;;;;;;4976648;28;992;-40
2022/03/26 05:27:26;;;;;;;;;;;22.80;46.20;;;;;;4977030;28;1018;-40
2022/03/26 05:29:52;;;;;;;;;;;22.80;46.30;;;;;;4976827;28;1102;-40
2022/03/26 05:32:19;;;;;;;;;;;22.80;46.30;;;;;;4976837;28;928;-40
2022/03/26 05:34:46;;;;;;;;;;;22.80;46.30;;;;;;4976579;28;951;-40
2022/03/26 05:37:13;;;;;;;;;;;22.80;46.20;;;;;;4976493;28;1038;-40
2022/03/26 05:39:40;;;;;;;;;;;22.90;46.40;;;;;;4976973;28;886;-40
2022/03/26 05:42:07;;;;;;;;;;;22.80;46.20;;;;;;4979071;28;1907;-40
2022/03/26 05:44:35;;;;;;;;;;;22.80;46.30;;;;;;4980175;28;1029;-39
2022/03/26 05:47:02;;;;;;;;;;;22.80;46.40;;;;;;4980193;28;1010;-40
2022/03/26 05:49:29;;;;;;;;;;;22.80;46.30;;;;;;4979474;28;1062;-40
2022/03/26 05:51:55;;;;;;;;;;;22.80;46.20;;;;;;4979623;28;970;-40
2022/03/26 05:54:22;;;;;;;;;;;22.80;46.50;;;;;;4980139;28;991;-40
2022/03/26 05:56:52;;;;;;;;;;;22.80;46.30;;;;;;4979817;28;939;-40
2022/03/26 05:59:19;;;;;;;;;;;22.80;46.30;;;;;;4978572;28;1094;-40
2022/03/26 06:01:47;;;;;;;;;;;22.80;46.10;;;;;;4978632;28;1973;-40
2022/03/26 06:04:14;;;;;;;;;;;22.90;46.30;;;;;;4979408;28;1042;-40
2022/03/26 06:06:41;;;;;;;;;;;22.80;46.40;;;;;;4979028;28;937;-40
2022/03/26 06:09:08;;;;;;;;;;;22.80;46.40;;;;;;4978636;28;961;-40
2022/03/26 06:11:35;;;;;;;;;;;22.80;46.40;;;;;;4978506;28;1106;-39
2022/03/26 06:14:02;;;;;;;;;;;22.80;46.40;;;;;;4979587;28;986;-40
2022/03/26 06:16:29;;;;;;;;;;;22.80;46.50;;;;;;4979039;28;951;-40
2022/03/26 06:18:57;;;;;;;;;;;22.80;46.40;;;;;;4979152;28;917;-40
2022/03/26 06:21:24;;;;;;;;;;;22.80;46.30;;;;;;4977515;28;1910;-40
2022/03/26 06:23:51;;;;;;;;;;;22.80;46.40;;;;;;4978708;28;987;-40
2022/03/26 06:26:17;;;;;;;;;;;22.80;46.40;;;;;;4977707;28;1012;-40
2022/03/26 06:28:44;;;;;;;;;;;22.80;46.40;;;;;;4977968;28;932;-40
2022/03/26 06:31:11;;;;;;;;;;;22.80;46.60;;;;;;4977974;28;994;-40
2022/03/26 06:33:37;;;;;;;;;;;22.80;46.40;;;;;;4978206;28;1003;-40
2022/03/26 06:36:06;;;;;;;;;;;22.80;46.50;;;;;;4978044;28;1033;-40
2022/03/26 06:38:38;;;;;;;;;;;22.80;46.40;;;;;;4978030;28;939;-38
2022/03/26 06:41:05;;;;;;;;;;;22.80;46.50;;;;;;4976962;28;1981;-38
2022/03/26 06:43:32;;;;;;;;;;;22.70;46.50;;;;;;4977091;28;964;-38
2022/03/26 06:45:59;;;;;;;;;;;22.80;46.60;;;;;;4977894;28;1044;-38
2022/03/26 06:48:26;;;;;;;;;;;22.80;46.40;;;;;;4978007;28;1021;-38
2022/03/26 06:50:53;;;;;;;;;;;22.80;46.50;;;;;;4977648;28;943;-38
2022/03/26 06:53:21;;;;;;;;;;;22.70;46.50;;;;;;4976590;28;910;-38
2022/03/26 06:55:48;;;;;;;;;;;22.80;46.50;;;;;;4977638;28;850;-38
2022/03/26 06:58:15;;;;;;;;;;;22.80;46.50;;;;;;4977522;28;1022;-38
2022/03/26 07:00:41;;;;;;;;;;;22.80;46.50;;;;;;4977088;28;1220;-38
2022/03/26 07:03:08;;;;;;;;;;;22.80;46.50;;;;;;4977366;28;1898;-38
2022/03/26 07:05:35;;;;;;;;;;;22.80;46.50;;;;;;4976804;28;947;-38
2022/03/26 07:08:03;;;;;;;;;;;22.80;46.40;;;;;;4976845;28;937;-38
2022/03/26 07:10:31;;;;;;;;;;;22.80;46.40;;;;;;4977278;28;950;-38
2022/03/26 07:12:58;;;;;;;;;;;22.80;46.60;;;;;;4976925;28;943;-38
2022/03/26 07:15:25;;;;;;;;;;;22.80;46.60;;;;;;4976946;28;840;-38
2022/03/26 07:17:51;;;;;;;;;;;22.80;46.60;;;;;;4976799;28;1018;-38
2022/03/26 07:20:18;;;;;;;;;;;22.80;46.60;;;;;;4976683;28;915;-38
2022/03/26 07:22:45;;;;;;;;;;;22.80;46.60;;;;;;4976789;28;1910;-38
2022/03/26 07:25:12;;;;;;;;;;;22.80;46.50;;;;;;4976961;28;1011;-39
2022/03/26 07:27:40;;;;;;;;;;;22.80;46.50;;;;;;4977079;28;982;-38
2022/03/26 07:30:08;;;;;;;;;;;22.80;46.60;;;;;;4976914;28;930;-38
2022/03/26 07:32:35;;;;;;;;;;;22.80;46.60;;;;;;4976358;28;925;-38
2022/03/26 07:35:02;;;;;;;;;;;22.80;46.50;;;;;;4976664;28;1019;-38
2022/03/26 07:37:29;;;;;;;;;;;22.80;46.50;;;;;;4976322;28;1029;-38
2022/03/26 07:39:56;;;;;;;;;;;22.80;46.50;;;;;;4976902;28;970;-38
2022/03/26 07:42:23;;;;;;;;;;;22.80;46.40;;;;;;4976512;28;1980;-40
2022/03/26 07:44:51;;;;;;;;;;;22.80;46.50;;;;;;4976781;28;981;-40
2022/03/26 07:47:17;;;;;;;;;;;22.80;46.60;;;;;;4976780;28;951;-38
2022/03/26 07:49:44;;;;;;;;;;;22.80;46.60;;;;;;4976334;28;1029;-38
2022/03/26 07:52:11;;;;;;;;;;;22.80;46.50;;;;;;4975873;28;1075;-38
2022/03/26 07:54:37;;;;;;;;;;;22.80;46.60;;;;;;4976815;28;879;-38
2022/03/26 07:57:05;;;;;;;;;;;22.80;46.60;;;;;;4975808;28;1014;-39
2022/03/26 07:59:32;;;;;;;;;;;22.80;46.60;;;;;;4975459;28;1161;-39
2022/03/26 08:02:00;;;;;;;;;;;22.80;46.60;;;;;;4975744;28;1975;-39
2022/03/26 08:04:26;;;;;;;;;;;22.80;46.70;;;;;;4976154;28;978;-39
2022/03/26 08:06:53;;;;;;;;;;;22.80;46.60;;;;;;4976294;28;1018;-41
2022/03/26 08:09:20;;;;;;;;;;;22.80;46.60;;;;;;4975927;28;948;-40
2022/03/26 08:11:46;;;;;;;;;;;22.80;46.50;;;;;;4976152;28;925;-40
2022/03/26 08:14:13;;;;;;;;;;;22.90;46.60;;;;;;4975025;28;920;-40
2022/03/26 08:16:40;;;;;;;;;;;22.90;46.60;;;;;;4975518;28;893;-40
2022/03/26 08:19:08;;;;;;;;;;;22.80;46.60;;;;;;4975099;28;970;-42
2022/03/26 08:21:35;;;;;;;;;;;22.80;46.60;;;;;;4976335;28;1906;-40
2022/03/26 08:24:02;;;;;;;;;;;22.80;46.50;;;;;;4975484;28;966;-40
2022/03/26 08:26:29;;;;;;;;;;;22.80;46.50;;;;;;4975012;28;1009;-40
2022/03/26 08:28:56;;;;;;;;;;;22.80;46.60;;;;;;4975199;28;1022;-40
2022/03/26 08:31:24;;;;;;;;;;;22.90;46.60;;;;;;4975326;28;909;-40
2022/03/26 08:33:51;;;;;;;;;;;22.90;46.50;;;;;;4975580;28;914;-40
2022/03/26 08:36:19;;;;;;;;;;;22.80;46.50;;;;;;4975738;28;1204;-40
2022/03/26 08:38:46;;;;;;;;;;;22.90;46.60;;;;;;4975610;28;906;-40
2022/03/26 08:41:13;;;;;;;;;;;22.90;46.60;;;;;;4974901;28;927;-40
2022/03/26 08:43:40;;;;;;;;;;;22.90;46.60;;;;;;4974352;28;1997;-40
2022/03/26 08:46:07;;;;;;;;;;;22.90;46.60;;;;;;4974599;28;991;-39
2022/03/26 08:48:34;;;;;;;;;;;22.90;46.50;;;;;;4973469;28;918;-45
2022/03/26 08:51:01;;;;;;;;;;;23.00;46.20;;;;;;4973741;28;999;-42
2022/03/26 08:53:29;;;;;;;;;;;23.00;46.30;;;;;;4973337;28;1046;-42
2022/03/26 08:55:56;;;;;;;;;;;22.90;46.40;;;;;;4973284;28;941;-43
2022/03/26 08:58:23;;;;;;;;;;;22.90;46.60;;;;;;4974283;28;1195;-41
2022/03/26 09:00:51;;;;;;;;;;;22.90;46.60;;;;;;4974916;28;1161;-41
2022/03/26 09:03:20;;;;;;;;;;;22.80;46.60;;;;;;4974051;28;1914;-44
2022/03/26 09:05:46;;;;;;;;;;;22.90;46.70;;;;;;4973892;28;974;-42
2022/03/26 09:08:13;;;;;;;;;;;22.90;46.70;;;;;;4974282;28;1027;-47
2022/03/26 09:10:41;;;;;;;;;;;23.10;46.60;;;;;;4973694;28;998;-46
2022/03/26 09:13:08;;;;;;;;;;;23.00;46.60;;;;;;4973357;28;1110;-48
2022/03/26 09:15:35;;;;;;;;;;;22.90;46.60;;;;;;4973941;28;918;-47
2022/03/26 09:18:01;;;;;;;;;;;23.00;46.70;;;;;;4976159;28;998;-45
2022/03/26 09:20:28;;;;;;;;;;;23.10;46.50;;;;;;4978259;28;1104;-43
2022/03/26 09:22:56;;;;;;;;;;;23.10;48.30;;;;;;4977766;28;1907;-41
2022/03/26 09:25:22;;;;;;;;;;;23.10;47.20;;;;;;4977353;28;1295;-42
2022/03/26 09:27:51;;;;;;;;;;;23.10;46.80;;;;;;4977965;28;1009;-41
2022/03/26 09:30:18;;;;;;;;;;;23.10;46.80;;;;;;4977976;28;1034;-42
2022/03/26 09:32:45;;;;;;;;;;;23.10;46.50;;;;;;4979122;28;936;-42
2022/03/26 09:35:12;;;;;;;;;;;23.10;46.70;;;;;;4979560;28;933;-45
2022/03/26 09:37:40;;;;;;;;;;;23.20;46.80;;;;;;4978536;28;900;-44
2022/03/26 09:40:07;;;;;;;;;;;23.20;46.70;;;;;;4978840;28;947;-43
2022/03/26 09:42:34;;;;;;;;;;;23.10;46.80;;;;;;4977954;28;1977;-43
2022/03/26 09:45:05;;;;;;;;;;;23.00;47.00;;;;;;4978070;28;1018;-43
2022/03/26 09:47:32;;;;;;;;;;;22.90;47.20;;;;;;4979762;28;978;-43
2022/03/26 09:49:59;;;;;;;;;;;23.00;47.30;;;;;;4980912;28;986;-37
2022/03/26 09:52:26;;;;;;;;;;;23.10;47.10;;;;;;4979658;28;979;-38
2022/03/26 09:54:53;;;;;;;;;;;23.20;47.00;;;;;;4977500;28;874;-38
2022/03/26 09:57:20;;;;;;;;;;;23.10;47.20;;;;;;4979201;28;1139;-38
2022/03/26 09:59:46;;;;;;;;;;;23.10;47.10;;;;;;4984929;28;1288;-37
2022/03/26 10:02:16;;;;;;;;;;;23.10;47.10;;;;;;4998567;28;1902;-37
2022/03/26 10:04:44;;;;;;;;;;;23.10;47.20;;;;;;4996972;28;938;-38
2022/03/26 10:07:11;;;;;;;;;;;23.10;47.20;;;;;;4998087;28;973;-37
2022/03/26 10:09:38;;;;;;;;;;;23.10;47.10;;;;;;4998429;28;924;-37
2022/03/26 10:12:06;;;;;;;;;;;23.10;47.10;;;;;;4999433;28;1013;-38
2022/03/26 10:14:40;;;;;;;;;;;23.10;47.10;;;;;;4997951;28;1049;-37
2022/03/26 10:17:11;;;;;;;;;;;23.10;47.10;;;;;;4996151;28;1023;-38
2022/03/26 10:19:41;;;;;;;;;;;23.10;47.00;;;;;;4998625;28;947;-38
2022/03/26 10:22:12;;;;;;;;;;;23.10;47.00;;;;;;4997999;28;1983;-37
2022/03/26 10:24:43;;;;;;;;;;;23.10;46.90;;;;;;4998938;28;916;-38
2022/03/26 10:27:13;;;;;;;;;;;23.10;46.90;;;;;;4996306;28;1105;-37
2022/03/26 10:29:48;;;;;;;;;;;23.10;46.90;;;;;;4999200;28;1002;-37
2022/03/26 10:35:07;;;;;;;;;;;23.10;46.80;;;;;;4997922;28;698;-38
2022/03/26 10:37:42;;;;;;;;;;;23.20;46.80;;;;;;4994938;28;1013;-38
2022/03/26 10:40:18;;;;;;;;;;;23.10;46.80;;;;;;4995470;28;938;-37
2022/03/26 10:42:45;;;;;;;;;;;23.10;46.80;;;;;;4996752;28;1903;-37
2022/03/26 10:45:15;;;;;;;;;;;23.20;46.80;;;;;;4996754;28;1049;-38
2022/03/26 10:47:42;;;;;;;;;;;23.20;46.80;;;;;;4997400;28;1001;-38
2022/03/26 10:50:14;;;;;;;;;;;23.20;46.70;;;;;;4996045;28;938;-38
2022/03/26 10:52:40;;;;;;;;;;;23.10;46.70;;;;;;4996179;28;882;-38
2022/03/26 10:55:12;;;;;;;;;;;23.20;46.70;;;;;;4995787;28;989;-38
2022/03/26 10:57:39;;;;;;;;;;;23.20;46.70;;;;;;4997221;28;1008;-38
2022/03/26 11:00:06;;;;;;;;;;;23.20;46.80;;;;;;4995807;28;1123;-38
2022/03/26 11:02:33;;;;;;;;;;;23.20;46.70;;;;;;4997441;28;1968;-38
2022/03/26 11:05:00;;;;;;;;;;;23.20;46.70;;;;;;4996986;28;1358;-38
2022/03/26 11:07:28;;;;;;;;;;;23.20;46.80;;;;;;4998215;28;1497;-38
2022/03/26 11:09:56;;;;;;;;;;;23.20;46.70;;;;;;4998244;28;982;-38
2022/03/26 11:12:24;;;;;;;;;;;23.20;46.70;;;;;;4999391;28;1033;-38
2022/03/26 11:14:52;;;;;;;;;;;23.20;46.70;;;;;;4997820;28;1032;-37
2022/03/26 11:17:23;;;;;;;;;;;23.20;46.70;;;;;;4997079;28;981;-38
2022/03/26 11:19:57;;;;;;;;;;;23.20;46.70;;;;;;4998245;28;1052;-37
2022/03/26 11:22:39;;;;;;;;;;;23.20;46.80;;;;;;4995929;28;1926;-38
2022/03/26 11:25:27;;;;;;;;;;;23.20;46.70;;;;;;4990802;28;1276;-38
2022/03/26 11:28:01;;;;;;;;;;;23.20;46.70;;;;;;4995487;28;926;-37
2022/03/26 11:30:31;;;;;;;;;;;23.10;46.80;;;;;;4996254;28;993;-37
2022/03/26 11:33:08;;;;;;;;;;;23.20;46.70;;;;;;4996485;28;995;-38
2022/03/26 11:35:35;;;;;;;;;;;23.20;46.80;;;;;;4995919;28;872;-38
2022/03/26 11:38:03;;;;;;;;;;;23.20;46.80;;;;;;4996485;28;982;-38
2022/03/26 11:40:48;;;;;;;;;;;23.20;46.70;;;;;;4995607;28;1017;-37
2022/03/26 11:43:19;;;;;;;;;;;23.20;46.70;;;;;;4996255;28;1906;-37
2022/03/26 11:51:22;;;;;;;;;;;23.20;46.70;;;;;;4995649;28;896;-37
2022/03/26 11:53:49;;;;;;;;;;;23.20;46.60;;;;;;4995973;28;998;-37
2022/03/26 11:56:23;;;;;;;;;;;23.20;46.60;;;;;;4996841;28;1036;-37
2022/03/26 11:59:11;;;;;;;;;;;23.20;46.70;;;;;;4997199;28;943;-37
2022/03/26 12:01:39;;;;;;;;;;;23.20;46.70;;;;;;4989245;28;1480;-38
2022/03/26 12:04:10;;;;;;;;;;;23.20;46.70;;;;;;4997170;28;1902;-37
2022/03/26 12:06:43;;;;;;;;;;;23.30;46.70;;;;;;4997233;28;1029;-38
2022/03/26 12:09:11;;;;;;;;;;;23.30;46.70;;;;;;4997960;28;933;-36
2022/03/26 12:11:38;;;;;;;;;;;23.40;46.40;;;;;;4998823;28;1768;-36
2022/03/26 12:14:05;;;;;;;;;;;23.40;46.20;;;;;;4998386;28;1051;-36
2022/03/26 12:16:54;;;;;;;;;;;23.50;43.60;;;;;;4995631;28;1131;-37
2022/03/26 12:19:37;;;;;;;;;;;23.50;41.20;;;;;;4996171;28;985;-38
2022/03/26 12:22:18;;;;;;;;;;;23.50;40.40;;;;;;4994785;28;1004;-38
2022/03/26 12:24:45;;;;;;;;;;;23.50;37.50;;;;;;4995217;28;1902;-38
2022/03/26 12:27:12;;;;;;;;;;;23.40;37.60;;;;;;4994936;28;928;-38
2022/03/26 12:29:38;;;;;;;;;;;23.30;36.70;;;;;;4994568;28;966;-37
2022/03/26 12:32:07;;;;;;;;;;;23.30;35.90;;;;;;4993487;28;1073;-38
2022/03/26 12:34:34;;;;;;;;;;;23.20;35.70;;;;;;4994848;28;935;-37
2022/03/26 12:37:01;;;;;;;;;;;23.20;36.80;;;;;;4993801;28;1025;-38
2022/03/26 12:39:28;;;;;;;;;;;23.30;36.10;;;;;;4992557;28;886;-37
2022/03/26 12:41:55;;;;;;;;;;;23.40;35.40;;;;;;4995362;28;931;-37
2022/03/26 12:44:22;;;;;;;;;;;23.30;35.30;;;;;;4994306;28;1902;-37
2022/03/26 12:46:49;;;;;;;;;;;23.20;35.30;;;;;;4995235;28;1016;-36
2022/03/26 12:49:18;;;;;;;;;;;23.40;34.40;;;;;;4995936;28;1001;-36
2022/03/26 12:51:44;;;;;;;;;;;23.40;33.40;;;;;;4998478;28;1036;-36
2022/03/26 12:54:13;;;;;;;;;;;23.30;33.10;;;;;;4999316;28;934;-37
2022/03/26 12:56:40;;;;;;;;;;;23.30;33.40;;;;;;4999686;28;901;-39
2022/03/26 12:59:06;;;;;;;;;;;23.30;33.60;;;;;;5001180;28;1110;-37
2022/03/26 13:01:35;;;;;;;;;;;23.30;34.20;;;;;;5001019;28;1497;-37
2022/03/26 13:04:04;;;;;;;;;;;23.20;33.00;;;;;;4980845;28;1918;-38
2022/03/26 13:06:32;;;;;;;;;;;23.30;33.30;;;;;;5001536;28;1420;-37
2022/03/26 13:09:00;;;;;;;;;;;23.10;34.10;;;;;;4999802;28;993;-37
2022/03/26 13:11:27;;;;;;;;;;;23.10;36.00;;;;;;5000045;28;943;-36
2022/03/26 13:13:55;;;;;;;;;;;23.20;36.30;;;;;;4999829;28;1009;-36
2022/03/26 13:16:24;;;;;;;;;;;23.30;36.20;;;;;;4998942;28;977;-37
2022/03/26 13:18:53;;;;;;;;;;;23.40;37.00;;;;;;4999563;28;1021;-37
2022/03/26 13:21:20;;;;;;;;;;;23.40;37.40;;;;;;4997942;28;1005;-37
2022/03/26 13:23:55;;;;;;;;;;;23.40;37.60;;;;;;4999552;28;1906;-37
2022/03/26 13:26:22;;;;;;;;;;;23.40;37.90;;;;;;4998013;28;1000;-36
2022/03/26 13:28:48;;;;;;;;;;;23.50;38.10;;;;;;4996993;28;1032;-37
2022/03/26 13:31:19;;;;;;;;;;;23.50;38.50;;;;;;4996819;28;881;-36
2022/03/26 13:33:46;;;;;;;;;;;23.50;38.80;;;;;;4997480;28;998;-37
2022/03/26 13:36:13;;;;;;;;;;;23.60;38.70;;;;;;4997330;28;967;-36
2022/03/26 13:38:40;;;;;;;;;;;23.70;38.80;;;;;;4997380;28;1025;-36
2022/03/26 13:41:15;;;;;;;;;;;23.70;39.00;;;;;;4996440;28;906;-39
2022/03/26 13:43:41;;;;;;;;;;;23.60;40.20;;;;;;4994835;28;1986;-37
2022/03/26 13:46:08;;;;;;;;;;;23.70;39.10;;;;;;4997046;28;1038;-36
2022/03/26 13:48:45;;;;;;;;;;;23.70;39.20;;;;;;4997561;28;938;-37
2022/03/26 13:51:12;;;;;;;;;;;23.70;39.20;;;;;;4998657;28;1023;-37
2022/03/26 13:53:39;;;;;;;;;;;23.80;39.20;;;;;;4998722;28;939;-37
2022/03/26 13:56:07;;;;;;;;;;;23.90;39.10;;;;;;4998762;28;1020;-37
2022/03/26 13:58:36;;;;;;;;;;;23.90;39.00;;;;;;4998564;28;1021;-36
2022/03/26 14:01:05;;;;;;;;;;;23.90;40.10;;;;;;4998418;28;1149;-37
2022/03/26 14:03:35;;;;;;;;;;;24.00;39.00;;;;;;4999300;28;1981;-36
2022/03/26 14:06:02;;;;;;;;;;;24.00;39.00;;;;;;4999752;28;1021;-36
2022/03/26 14:08:29;;;;;;;;;;;24.00;38.90;;;;;;4997276;28;1016;-37
2022/03/26 14:10:55;;;;;;;;;;;24.00;38.80;;;;;;4995156;28;955;-36
2022/03/26 14:13:22;;;;;;;;;;;24.10;38.70;;;;;;4995881;28;974;-37
2022/03/26 14:15:50;;;;;;;;;;;24.10;38.60;;;;;;4996905;28;969;-36
2022/03/26 14:18:18;;;;;;;;;;;24.20;38.70;;;;;;4997852;28;1006;-36
2022/03/26 14:20:45;;;;;;;;;;;24.10;38.60;;;;;;4994830;28;937;-36
2022/03/26 14:23:12;;;;;;;;;;;24.20;38.70;;;;;;4996419;28;1902;-36
2022/03/26 14:25:40;;;;;;;;;;;24.20;38.50;;;;;;4995647;28;910;-36
2022/03/26 14:28:09;;;;;;;;;;;24.10;38.40;;;;;;4997605;28;1213;-36
2022/03/26 14:30:35;;;;;;;;;;;24.20;38.40;;;;;;4996244;28;993;-36
2022/03/26 14:33:04;;;;;;;;;;;24.20;38.30;;;;;;4995836;28;936;-36
2022/03/26 14:35:31;;;;;;;;;;;24.20;38.10;;;;;;4995654;28;1056;-36
2022/03/26 14:37:58;;;;;;;;;;;24.10;38.00;;;;;;4995798;28;985;-37
2022/03/26 14:40:25;;;;;;;;;;;24.10;38.00;;;;;;4995560;28;939;-37
2022/03/26 14:42:52;;;;;;;;;;;24.00;38.20;;;;;;4995766;28;954;-36
2022/03/26 14:45:19;;;;;;;;;;;24.10;38.00;;;;;;4995261;28;1910;-36
2022/03/26 14:47:45;;;;;;;;;;;24.10;38.20;;;;;;4995487;28;1008;-37